Time;durP1;ratioP1;P1;durP2;ratioP2;P2;SDS_P1;SDS_P2;PMS_P1;PMS_P2;Temp;Humidity;BMP_temperature;BMP_pressure;BME280_temperature;BME280_humidity;BME280_pressure;Samples;Min_cycle;Max_cycle;Signal;HPM_P1;HPM_P2
2022/12/26 00:01:52;;;;;;;2.67;2.47;;;;;;;10.48;100.00;100171.97;5007319;28;20215;-74
2022/12/26 00:04:18;;;;;;;2.93;2.73;;;;;;;10.46;100.00;100163.38;5020765;28;20184;-76
2022/12/26 00:06:44;;;;;;;2.90;2.40;;;;;;;10.48;100.00;100168.53;5015282;28;20215;-75
2022/12/26 00:09:10;;;;;;;2.20;2.00;;;;;;;10.47;100.00;100164.25;5022465;28;20202;-76
2022/12/26 00:11:36;;;;;;;2.43;2.23;;;;;;;10.44;100.00;100164.25;5018097;28;20192;-75
2022/12/26 00:14:05;;;;;;;2.50;2.30;;;;;;;10.42;100.00;100171.19;5017003;28;20652;-75
2022/12/26 00:16:31;;;;;;;2.67;2.47;;;;;;;10.41;100.00;100190.16;5019301;28;20207;-75
2022/12/26 00:18:56;;;;;;;2.90;2.33;;;;;;;10.42;100.00;100185.00;5022736;28;20788;-75
2022/12/26 00:21:26;;;;;;;2.80;2.60;;;;;;;10.47;100.00;100182.34;5029030;28;20214;-75
2022/12/26 00:23:52;;;;;;;2.80;2.60;;;;;;;10.52;100.00;100171.06;5015543;28;20184;-75
2022/12/26 00:26:20;;;;;;;2.60;2.40;;;;;;;10.57;100.00;100177.94;5019773;28;20263;-75
2022/12/26 00:28:45;;;;;;;2.70;2.50;;;;;;;10.60;100.00;100171.00;5021836;28;20195;-75
2022/12/26 00:31:19;;;;;;;2.40;2.20;;;;;;;10.65;100.00;100181.28;5018767;28;20194;-74
2022/12/26 00:33:45;;;;;;;2.73;2.50;;;;;;;10.68;100.00;100171.75;5020177;28;20200;-74
2022/12/26 00:36:16;;;;;;;3.17;2.47;;;;;;;10.75;100.00;100180.31;5016032;28;20286;-75
2022/12/26 00:38:42;;;;;;;3.23;2.93;;;;;;;10.79;100.00;100173.38;5016209;28;20191;-74
2022/12/26 00:41:09;;;;;;;3.00;2.70;;;;;;;10.80;100.00;100162.16;5018677;28;20192;-75
2022/12/26 00:43:35;;;;;;;2.90;2.57;;;;;;;10.81;100.00;100169.88;5020515;28;20188;-75
2022/12/26 00:46:01;;;;;;;2.77;2.57;;;;;;;10.86;100.00;100162.06;5021908;28;21112;-75
2022/12/26 00:48:27;;;;;;;2.63;2.40;;;;;;;10.87;100.00;100165.53;5018380;28;20914;-74
2022/12/26 00:50:52;;;;;;;2.87;2.57;;;;;;;10.90;100.00;100155.97;5017419;28;20634;-75
2022/12/26 00:53:18;;;;;;;2.50;2.30;;;;;;;10.93;100.00;100155.06;5023921;28;20226;-75
2022/12/26 00:55:44;;;;;;;2.93;2.70;;;;;;;10.96;100.00;100149.84;5036293;28;20214;-75
2022/12/26 00:58:09;;;;;;;2.80;2.50;;;;;;;11.06;100.00;100135.06;5020351;28;20572;-75
2022/12/26 01:00:35;;;;;;;3.10;2.70;;;;;;;11.13;100.00;100128.91;5020955;28;20282;-76
2022/12/26 01:03:01;;;;;;;3.07;2.57;;;;;;;11.16;100.00;100128.03;5018997;28;20192;-75
2022/12/26 01:05:26;;;;;;;3.07;2.50;;;;;;;11.27;100.00;100128.72;5012839;28;20222;-75
2022/12/26 01:07:51;;;;;;;2.50;2.07;;;;;;;11.29;100.00;100130.41;5017399;28;20657;-75
2022/12/26 01:10:17;;;;;;;2.60;2.40;;;;;;;11.37;100.00;100122.53;5017928;28;20934;-74
2022/12/26 01:12:42;;;;;;;2.70;2.50;;;;;;;11.44;100.00;100113.78;5022710;28;20277;-75
2022/12/26 01:15:08;;;;;;;3.13;2.17;;;;;;;11.49;100.00;100124.09;5022179;28;20224;-75
2022/12/26 01:17:34;;;;;;;2.87;2.47;;;;;;;11.53;100.00;100132.66;5020909;28;20245;-75
2022/12/26 01:20:00;;;;;;;2.27;1.83;;;;;;;11.56;100.00;100155.94;5017651;28;20278;-75
2022/12/26 01:22:26;;;;;;;2.93;2.40;;;;;;;11.55;100.00;100147.31;5018226;28;21040;-75
2022/12/26 01:24:55;;;;;;;2.70;2.50;;;;;;;11.56;100.00;100164.59;5022451;28;20193;-75
2022/12/26 01:27:22;;;;;;;2.27;2.07;;;;;;;11.56;100.00;100171.50;5022660;28;20213;-75
2022/12/26 01:29:47;;;;;;;2.33;2.07;;;;;;;11.58;100.00;100174.91;5023508;28;20672;-75
2022/12/26 01:32:12;;;;;;;2.57;2.37;;;;;;;11.58;100.00;100172.31;5017431;28;20188;-75
2022/12/26 01:34:38;;;;;;;3.03;2.40;;;;;;;11.59;100.00;100172.28;5021521;28;20613;-74
2022/12/26 01:37:03;;;;;;;3.13;2.30;;;;;;;11.60;100.00;100180.94;5018465;28;21045;-75
2022/12/26 01:39:28;;;;;;;2.33;2.17;;;;;;;11.62;100.00;100179.19;5017942;28;20251;-74
2022/12/26 01:41:54;;;;;;;2.53;2.33;;;;;;;11.61;100.00;100177.47;5021356;28;20220;-74
2022/12/26 01:45:00;;;;;;;2.33;2.13;;;;;;;11.65;100.00;100154.94;5017532;28;20625;-75
2022/12/26 01:47:55;;;;;;;2.53;2.33;;;;;;;11.72;100.00;100164.34;5005528;28;20224;-75
2022/12/26 01:50:42;;;;;;;2.40;2.20;;;;;;;11.74;100.00;100155.66;5018261;28;20212;-74
2022/12/26 01:53:21;;;;;;;3.60;2.70;;;;;;;11.74;100.00;100168.63;5026779;28;20183;-75
2022/12/26 01:55:52;;;;;;;2.47;2.27;;;;;;;11.73;100.00;100169.50;5036423;28;20216;-74
2022/12/26 01:58:31;;;;;;;2.53;2.33;;;;;;;11.72;100.00;100177.31;5017136;28;20288;-74
2022/12/26 02:00:57;;;;;;;2.43;2.23;;;;;;;11.72;100.00;100177.31;5013342;28;20563;-75
2022/12/26 02:06:09;;;;;;;2.70;2.50;;;;;;;11.77;100.00;100182.41;5018973;28;20238;-75
2022/12/26 02:08:35;;;;;;;2.63;2.20;;;;;;;11.76;100.00;100194.50;5001692;28;20223;-75
2022/12/26 02:11:24;;;;;;;3.20;2.77;;;;;;;11.75;100.00;100200.56;5019708;28;20732;-75
2022/12/26 02:13:50;;;;;;;2.50;2.30;;;;;;;11.74;100.00;100198.84;5013719;28;20199;-75
2022/12/26 02:16:17;;;;;;;3.07;2.77;;;;;;;11.71;100.00;100204.13;5010971;28;20672;-74
2022/12/26 02:18:42;;;;;;;2.30;2.07;;;;;;;11.71;100.00;100204.13;5014335;28;20505;-75
2022/12/26 02:21:29;;;;;;;3.20;2.90;;;;;;;11.70;100.00;100207.59;5017107;28;20270;-75
2022/12/26 02:24:14;;;;;;;2.60;2.40;;;;;;;11.66;100.00;100213.69;5010119;28;20245;-74
2022/12/26 02:26:59;;;;;;;2.53;2.33;;;;;;;11.66;100.00;100203.31;5019609;28;20267;-74
2022/12/26 02:29:48;;;;;;;3.23;2.43;;;;;;;11.69;100.00;100191.16;5015017;28;20200;-76
2022/12/26 02:32:51;;;;;;;4.53;2.63;;;;;;;11.74;100.00;100209.22;5018124;28;20290;-74
2022/12/26 02:35:26;;;;;;;2.63;2.43;;;;;;;11.80;100.00;100213.50;5015301;28;20316;-74
2022/12/26 02:38:22;;;;;;;2.57;2.37;;;;;;;11.83;100.00;100208.25;5001920;28;20197;-75
2022/12/26 02:40:56;;;;;;;2.50;2.30;;;;;;;11.85;100.00;100204.75;5018957;28;20328;-74
2022/12/26 02:43:33;;;;;;;3.17;2.57;;;;;;;11.93;100.00;100208.94;5022037;28;20200;-75
2022/12/26 02:49:20;;;;;;;3.17;2.80;;;;;;;12.08;100.00;100220.88;5015298;28;20589;-75
2022/12/26 03:15:05;;;;;;;2.57;2.37;;;;;;;12.12;100.00;100192.25;5024187;28;20211;-74
2022/12/26 03:17:43;;;;;;;2.80;2.50;;;;;;;12.09;100.00;100184.50;5024075;28;20217;-74
2022/12/26 03:20:20;;;;;;;2.97;2.50;;;;;;;12.02;100.00;100188.94;5026840;28;20198;-75
2022/12/26 03:22:57;;;;;;;2.57;2.37;;;;;;;12.00;100.00;100185.53;5025784;28;20767;-75
2022/12/26 03:28:19;;;;;;;2.87;2.27;;;;;;;11.94;100.00;100188.19;5024740;28;20728;-75
2022/12/26 03:30:48;;;;;;;3.03;2.20;;;;;;;11.96;100.00;100185.56;5024982;28;20288;-75
2022/12/26 03:36:07;;;;;;;2.53;2.33;;;;;;;12.00;100.00;100179.50;5021078;28;20562;-75
2022/12/26 03:38:50;;;;;;;2.70;2.50;;;;;;;11.97;100.00;100182.94;5018228;28;20206;-74
2022/12/26 04:44:25;;;;;;;2.60;2.20;;;;;;;11.91;100.00;100164.91;5016500;28;20212;-75
2022/12/26 04:46:53;;;;;;;2.87;2.27;;;;;;;11.96;100.00;100176.03;5003973;28;20728;-74
2022/12/26 04:52:11;;;;;;;2.60;2.30;;;;;;;12.14;100.00;100189.63;5022332;28;20814;-75
2022/12/26 04:54:37;;;;;;;2.67;2.27;;;;;;;12.19;100.00;100200.78;5011559;28;20190;-74
2022/12/26 04:57:03;;;;;;;3.20;2.20;;;;;;;12.24;100.00;100209.34;5016298;28;20220;-74
2022/12/26 04:59:28;;;;;;;2.23;2.03;;;;;;;12.27;100.00;100224.84;5020968;28;20198;-74
2022/12/26 05:10:21;;;;;;;2.80;2.50;;;;;;;12.26;100.00;100236.09;5024101;28;20334;-74
2022/12/26 05:12:46;;;;;;;2.50;2.30;;;;;;;12.20;100.00;100218.91;5020814;28;20637;-74
2022/12/26 05:15:12;;;;;;;4.03;2.30;;;;;;;12.13;100.00;100234.59;5020718;28;20185;-76
2022/12/26 05:28:58;;;;;;;3.47;2.50;;;;;;;11.68;100.00;100219.72;4980105;28;20194;-75
2022/12/26 05:31:23;;;;;;;2.60;2.40;;;;;;;11.66;100.00;100208.50;5016341;28;20187;-74
2022/12/26 05:34:09;;;;;;;2.63;2.43;;;;;;;11.62;100.00;100204.22;5027968;28;20196;-75
2022/12/26 05:36:49;;;;;;;2.90;2.60;;;;;;;11.58;100.00;100206.03;5018619;28;20246;-75
2022/12/26 05:39:15;;;;;;;3.23;2.93;;;;;;;11.56;100.00;100200.88;5036703;28;20185;-75
2022/12/26 05:41:40;;;;;;;2.53;2.33;;;;;;;11.54;100.00;100213.00;5018279;28;20630;-75
2022/12/26 05:44:06;;;;;;;2.97;2.73;;;;;;;11.53;100.00;100219.06;5013645;28;20276;-75
2022/12/26 05:46:32;;;;;;;4.40;3.40;;;;;;;11.50;100.00;100210.44;5012332;28;20228;-74
2022/12/26 05:48:58;;;;;;;2.93;2.63;;;;;;;11.47;100.00;100210.50;5020339;28;20197;-75
2022/12/26 05:51:23;;;;;;;2.63;2.43;;;;;;;11.43;100.00;100212.25;5014962;28;20198;-75
2022/12/26 05:53:49;;;;;;;2.60;2.40;;;;;;;11.40;100.00;100210.56;5013363;28;22288;-76
2022/12/26 05:56:16;;;;;;;2.93;2.40;;;;;;;11.38;100.00;100201.13;5016736;28;20682;-74
2022/12/26 05:58:42;;;;;;;3.13;2.83;;;;;;;11.39;100.00;100201.09;5014370;28;20219;-73
2022/12/26 06:01:18;;;;;;;2.67;2.47;;;;;;;11.40;100.00;100207.16;5026343;28;20779;-74
2022/12/26 06:03:49;;;;;;;3.10;2.63;;;;;;;11.42;100.00;100211.41;5020251;28;20228;-73
2022/12/26 06:06:15;;;;;;;3.57;3.27;;;;;;;11.44;100.00;100201.03;5016401;28;20293;-73
2022/12/26 06:08:41;;;;;;;3.10;2.80;;;;;;;11.45;100.00;100202.75;5019111;28;20665;-75
2022/12/26 06:11:09;;;;;;;3.23;2.83;;;;;;;11.48;100.00;100205.28;5016101;28;20201;-75
2022/12/26 06:13:34;;;;;;;2.93;2.63;;;;;;;11.48;100.00;100205.28;5035247;28;20283;-74
2022/12/26 06:16:05;;;;;;;2.93;2.73;;;;;;;11.52;100.00;100203.50;5017824;28;20599;-74
2022/12/26 06:18:30;;;;;;;3.07;2.87;;;;;;;11.54;100.00;100205.22;5023098;28;20287;-73
2022/12/26 06:20:55;;;;;;;2.83;2.50;;;;;;;11.55;100.00;100198.28;5033726;28;20188;-73
2022/12/26 06:23:21;;;;;;;4.87;3.00;;;;;;;11.57;100.00;100205.16;5029361;28;20193;-74
2022/12/26 06:25:54;;;;;;;4.03;3.50;;;;;;;11.59;100.00;100208.56;5015009;28;20218;-74
2022/12/26 06:28:20;;;;;;;3.27;2.97;;;;;;;11.61;100.00;100211.16;5026258;28;20618;-75
2022/12/26 06:30:45;;;;;;;3.20;2.90;;;;;;;11.59;100.00;100223.28;5026710;28;20208;-74
2022/12/26 06:33:10;;;;;;;3.17;2.80;;;;;;;11.58;100.00;100245.75;5022524;28;20216;-73
2022/12/26 06:35:36;;;;;;;2.63;2.43;;;;;;;11.56;100.00;100263.06;5029214;28;20201;-74
2022/12/26 06:38:01;;;;;;;3.23;2.93;;;;;;;11.55;100.00;100270.84;5026406;28;20284;-74
2022/12/26 06:40:26;;;;;;;4.03;3.00;;;;;;;11.52;100.00;100276.94;5033936;28;20928;-74
2022/12/26 06:42:51;;;;;;;3.27;2.80;;;;;;;11.49;100.00;100276.13;5039001;28;20194;-75
2022/12/26 06:45:17;;;;;;;3.23;2.93;;;;;;;11.46;100.00;100281.34;5034138;28;20280;-73
2022/12/26 06:47:42;;;;;;;2.77;2.57;;;;;;;11.43;100.00;100283.09;5021744;28;20237;-74
2022/12/26 06:50:08;;;;;;;3.43;2.60;;;;;;;11.40;100.00;100283.13;5012698;28;20197;-73
2022/12/26 06:52:33;;;;;;;2.83;2.60;;;;;;;11.37;100.00;100293.53;5000767;28;20902;-74
2022/12/26 06:54:59;;;;;;;2.80;2.60;;;;;;;11.36;100.00;100290.97;5020936;28;20190;-75
2022/12/26 06:57:24;;;;;;;3.30;3.00;;;;;;;11.34;100.00;100280.63;5023210;28;20211;-74
2022/12/26 06:59:49;;;;;;;2.73;2.53;;;;;;;11.33;100.00;100283.22;5025921;28;20207;-76
2022/12/26 07:02:14;;;;;;;2.80;2.60;;;;;;;11.29;100.00;100279.81;5017390;28;20731;-72
2022/12/26 07:04:40;;;;;;;3.77;3.00;;;;;;;11.25;100.00;100279.00;5025812;28;20192;-74
2022/12/26 07:07:05;;;;;;;3.33;3.13;;;;;;;11.23;100.00;100280.75;5024380;28;20221;-74
2022/12/26 07:09:30;;;;;;;3.43;3.13;;;;;;;11.18;100.00;100282.53;5025577;28;20714;-74
2022/12/26 07:11:56;;;;;;;3.17;2.97;;;;;;;11.14;100.00;100273.06;5025862;28;20188;-74
2022/12/26 07:14:21;;;;;;;5.23;4.73;;;;;;;11.09;100.00;100267.97;5039642;28;20203;-76
2022/12/26 07:16:46;;;;;;;5.67;5.00;;;;;;;11.05;100.00;100268.84;5023064;28;20200;-73
2022/12/26 07:19:14;;;;;;;5.30;4.77;;;;;;;11.04;100.00;100279.25;5028130;28;20233;-74
2022/12/26 07:21:39;;;;;;;5.47;4.30;;;;;;;11.00;100.00;100283.59;5020211;28;20184;-76
2022/12/26 07:24:05;;;;;;;4.53;4.13;;;;;;;10.98;100.00;100285.34;5017467;28;20211;-74
2022/12/26 07:26:30;;;;;;;4.13;3.83;;;;;;;10.94;100.00;100279.34;5021517;28;20239;-73
2022/12/26 07:28:57;;;;;;;4.00;3.70;;;;;;;10.92;100.00;100278.50;5021479;28;20243;-76
2022/12/26 07:31:24;;;;;;;4.50;4.10;;;;;;;10.91;100.00;100278.50;5024468;28;20185;-72
2022/12/26 07:33:51;;;;;;;4.03;3.73;;;;;;;10.90;100.00;100290.59;5021206;28;20183;-73
2022/12/26 07:36:17;;;;;;;4.57;4.17;;;;;;;10.89;100.00;100301.00;5027390;28;20196;-73
2022/12/26 07:38:43;;;;;;;4.93;4.40;;;;;;;10.89;100.00;100299.25;5022184;28;20187;-74
2022/12/26 07:43:52;;;;;;;7.87;6.80;;;;;;;10.91;100.00;100319.94;5027364;28;20246;-75
2022/12/26 07:46:17;;;;;;;10.33;7.80;;;;;;;10.92;100.00;100322.53;5029513;28;21034;-73
2022/12/26 07:48:43;;;;;;;8.73;7.23;;;;;;;10.93;100.00;100323.38;5030026;28;20623;-75
2022/12/26 07:51:08;;;;;;;9.47;7.60;;;;;;;10.94;100.00;100325.97;5021440;28;20692;-72
2022/12/26 07:53:34;;;;;;;11.37;8.03;;;;;;;10.93;100.00;100324.25;5022802;28;20185;-73
2022/12/26 07:55:59;;;;;;;9.87;7.37;;;;;;;10.94;100.00;100328.56;5027232;28;20211;-76
2022/12/26 07:58:25;;;;;;;8.63;6.20;;;;;;;10.94;100.00;100333.72;5029731;28;20202;-73
2022/12/26 08:00:50;;;;;;;7.00;5.57;;;;;;;10.93;100.00;100331.13;5029478;28;20800;-75
2022/12/26 08:03:16;;;;;;;5.37;4.87;;;;;;;10.92;100.00;100338.06;5022781;28;20191;-75
2022/12/26 08:05:46;;;;;;;6.63;5.23;;;;;;;10.92;100.00;100343.25;5020546;28;20922;-74
2022/12/26 08:08:12;;;;;;;6.63;4.70;;;;;;;10.91;100.00;100344.13;5019900;28;20189;-75
2022/12/26 08:10:37;;;;;;;6.97;5.27;;;;;;;10.90;100.00;100363.09;5017337;28;20205;-74
2022/12/26 08:13:02;;;;;;;8.10;5.73;;;;;;;10.89;100.00;100374.34;5018010;28;20183;-75
2022/12/26 08:15:27;;;;;;;7.47;5.27;;;;;;;10.90;100.00;100386.41;5017988;28;20283;-74
2022/12/26 08:17:53;;;;;;;5.60;5.10;;;;;;;10.89;100.00;100395.03;5021147;28;20183;-74
2022/12/26 08:20:18;;;;;;;6.20;5.60;;;;;;;10.89;100.00;100396.78;5026473;28;20188;-76
2022/12/26 08:22:43;;;;;;;5.63;5.00;;;;;;;10.89;100.00;100396.78;5018575;28;20191;-74
2022/12/26 08:25:09;;;;;;;6.23;4.70;;;;;;;10.88;100.00;100408.88;5021501;28;20233;-74
2022/12/26 08:27:34;;;;;;;4.90;4.40;;;;;;;10.88;100.00;100405.44;5019190;28;20205;-75
2022/12/26 08:30:00;;;;;;;5.77;4.90;;;;;;;10.88;100.00;100427.00;5028201;28;20218;-74
2022/12/26 08:32:25;;;;;;;4.87;4.47;;;;;;;10.88;100.00;100424.41;5026853;28;20198;-74
2022/12/26 08:34:50;;;;;;;4.87;4.37;;;;;;;10.89;100.00;100430.44;5047852;28;20192;-76
2022/12/26 08:37:16;;;;;;;5.23;4.37;;;;;;;10.88;100.00;100429.56;5028077;28;20492;-74
2022/12/26 08:39:41;;;;;;;4.67;4.20;;;;;;;10.88;100.00;100442.53;5018620;28;20659;-75
2022/12/26 08:42:06;;;;;;;4.77;4.37;;;;;;;10.89;100.00;100443.41;5016994;28;20260;-74
2022/12/26 08:44:32;;;;;;;5.10;4.30;;;;;;;10.91;100.00;100449.41;5023951;28;20184;-76
2022/12/26 08:46:57;;;;;;;4.67;4.27;;;;;;;10.93;100.00;100451.13;5026807;28;20243;-76
2022/12/26 08:49:22;;;;;;;4.53;4.13;;;;;;;10.96;100.00;100452.81;5029530;28;20195;-74
2022/12/26 08:51:48;;;;;;;4.70;3.93;;;;;;;10.97;100.00;100457.97;5020756;28;20602;-75
2022/12/26 08:54:13;;;;;;;5.53;5.03;;;;;;;10.94;100.00;100458.03;5022290;28;20202;-75
2022/12/26 08:56:38;;;;;;;5.97;5.30;;;;;;;10.92;100.00;100454.59;5025566;28;20293;-74
2022/12/26 08:59:04;;;;;;;5.47;4.93;;;;;;;10.90;100.00;100458.03;5024560;28;20239;-75
2022/12/26 09:01:30;;;;;;;4.50;4.10;;;;;;;10.89;100.00;100458.94;5017087;28;20695;-76
2022/12/26 09:04:00;;;;;;;3.63;3.27;;;;;;;10.92;100.00;100466.66;5015559;28;20183;-76
2022/12/26 09:06:26;;;;;;;3.83;3.37;;;;;;;10.88;100.00;100465.81;5017787;28;20218;-74
2022/12/26 09:08:52;;;;;;;3.43;3.13;;;;;;;10.88;100.00;100459.81;5024580;28;20645;-75
2022/12/26 09:11:21;;;;;;;3.60;3.30;;;;;;;10.87;100.00;100469.28;4997362;28;20580;-75
2022/12/26 09:13:47;;;;;;;3.43;3.13;;;;;;;10.88;100.00;100464.97;5015491;28;20255;-73
2022/12/26 09:16:15;;;;;;;5.00;3.83;;;;;;;10.88;100.00;100471.00;5027821;28;20946;-74
2022/12/26 09:18:42;;;;;;;4.17;3.77;;;;;;;10.86;100.00;100472.75;5033004;28;20190;-74
2022/12/26 09:21:09;;;;;;;4.10;3.70;;;;;;;10.83;100.00;100476.22;5022430;28;20237;-74
2022/12/26 09:23:35;;;;;;;4.70;3.87;;;;;;;10.83;100.00;100477.94;5020355;28;20198;-74
2022/12/26 09:26:13;;;;;;;5.37;4.63;;;;;;;10.82;100.00;100451.19;5018815;28;21024;-75
2022/12/26 09:28:39;;;;;;;5.17;4.00;;;;;;;10.80;100.00;100445.16;5018610;28;20176;-73
2022/12/26 09:31:08;;;;;;;5.47;4.23;;;;;;;10.83;100.00;100460.69;5009789;28;20586;-76
2022/12/26 09:33:37;;;;;;;4.57;4.17;;;;;;;10.81;100.00;100461.56;5012396;28;20184;-73
2022/12/26 09:36:08;;;;;;;5.97;4.73;;;;;;;10.79;100.00;100487.47;5024687;28;20208;-74
2022/12/26 09:38:35;;;;;;;5.23;4.57;;;;;;;10.79;100.00;100490.03;5015508;28;20181;-74
2022/12/26 09:41:31;;;;;;;5.53;4.60;;;;;;;10.78;100.00;100511.63;5023797;28;20176;-74
2022/12/26 09:44:18;;;;;;;5.57;5.07;;;;;;;10.75;100.00;100506.47;5012234;28;20202;-74
2022/12/26 09:47:05;;;;;;;5.77;5.20;;;;;;;10.75;100.00;100497.84;5016241;28;20385;-73
2022/12/26 09:49:35;;;;;;;5.13;4.60;;;;;;;10.71;100.00;100516.84;5028183;28;20195;-74
2022/12/26 09:52:14;;;;;;;5.43;4.77;;;;;;;10.72;100.00;100526.34;5020119;28;20275;-73
2022/12/26 09:54:47;;;;;;;6.20;5.33;;;;;;;10.68;100.00;100528.94;5017853;28;20271;-75
2022/12/26 09:57:18;;;;;;;6.13;5.30;;;;;;;10.66;100.00;100525.50;5018016;28;20250;-73
2022/12/26 09:59:51;;;;;;;6.23;5.67;;;;;;;10.64;100.00;100514.31;5018187;28;20726;-73
2022/12/26 10:02:22;;;;;;;6.20;5.70;;;;;;;10.67;100.00;100505.66;5015299;28;20214;-73
2022/12/26 10:04:48;;;;;;;6.00;5.43;;;;;;;10.68;100.00;100504.78;5020489;28;20200;-74
2022/12/26 10:07:21;;;;;;;6.37;5.83;;;;;;;10.71;100.00;100517.72;5018791;28;20215;-74
2022/12/26 10:09:58;;;;;;;5.83;5.23;;;;;;;10.73;100.00;100510.81;5014926;28;20219;-74
2022/12/26 10:12:51;;;;;;;6.17;5.57;;;;;;;10.73;100.00;100504.75;5015115;28;20231;-74
2022/12/26 10:15:39;;;;;;;6.03;5.40;;;;;;;10.73;100.00;100504.75;5017313;28;20274;-74
2022/12/26 10:18:12;;;;;;;5.40;4.90;;;;;;;10.71;100.00;100511.66;5022232;28;20223;-74
2022/12/26 10:21:15;;;;;;;4.93;4.47;;;;;;;10.72;100.00;100519.44;5025449;28;20191;-73
2022/12/26 10:23:46;;;;;;;4.70;4.30;;;;;;;10.70;100.00;100509.94;5019126;28;20188;-73
2022/12/26 10:26:14;;;;;;;4.67;4.17;;;;;;;10.69;100.00;100501.34;5023209;28;20284;-73
2022/12/26 10:29:09;;;;;;;4.63;4.23;;;;;;;10.69;100.00;100501.34;5020609;28;20201;-73
2022/12/26 10:31:58;;;;;;;4.40;4.00;;;;;;;10.69;100.00;100503.94;5017120;28;20199;-73
2022/12/26 10:34:24;;;;;;;4.70;4.30;;;;;;;10.72;100.00;100516.84;5021325;28;20275;-72
2022/12/26 10:36:59;;;;;;;4.33;3.93;;;;;;;10.76;100.00;100515.94;5021743;28;20342;-74
2022/12/26 10:39:30;;;;;;;4.90;4.30;;;;;;;10.85;100.00;100509.00;5022126;28;20719;-73
2022/12/26 10:42:01;;;;;;;4.70;4.30;;;;;;;10.89;100.00;100503.78;5020864;28;20800;-76
2022/12/26 10:44:26;;;;;;;4.57;4.17;;;;;;;10.92;100.00;100514.13;5024490;28;20191;-73
2022/12/26 10:47:27;;;;;;;4.57;4.20;;;;;;;10.94;100.00;100507.22;5038757;28;20287;-72
2022/12/26 10:49:53;;;;;;;4.37;3.70;;;;;;;10.95;100.00;100495.13;5006191;28;20369;-76
2022/12/26 10:52:25;;;;;;;4.50;4.13;;;;;;;10.98;100.00;100474.38;5021133;28;20685;-72
2022/12/26 10:54:55;;;;;;;4.63;4.23;;;;;;;11.04;100.00;100476.06;5020546;28;20289;-73
2022/12/26 10:57:22;;;;;;;3.90;3.60;;;;;;;11.07;100.00;100497.63;5022190;28;20884;-73
2022/12/26 10:59:50;;;;;;;4.53;4.13;;;;;;;11.12;100.00;100494.97;5021839;28;20192;-73
2022/12/26 11:02:26;;;;;;;3.80;3.50;;;;;;;11.18;100.00;100491.50;5021152;28;20234;-72
2022/12/26 11:05:08;;;;;;;3.70;3.40;;;;;;;11.22;100.00;100496.66;5020135;28;20199;-73
2022/12/26 11:07:37;;;;;;;3.50;3.20;;;;;;;11.26;100.00;100487.97;5020492;28;20426;-73
2022/12/26 11:10:12;;;;;;;2.97;2.70;;;;;;;11.23;100.00;100495.78;5024804;28;20735;-73
2022/12/26 11:12:50;;;;;;;2.97;2.70;;;;;;;11.21;100.00;100497.50;5022714;28;20187;-74
2022/12/26 11:15:21;;;;;;;2.53;2.33;;;;;;;11.17;100.00;100485.44;5021416;28;20226;-74
2022/12/26 11:17:49;;;;;;;1.90;1.80;;;;;;;11.16;100.00;100480.28;5023665;28;20193;-73
2022/12/26 11:20:14;;;;;;;2.00;1.80;;;;;;;11.17;100.00;100469.06;5023043;28;20192;-74
2022/12/26 11:22:40;;;;;;;2.17;1.87;;;;;;;11.17;100.00;100485.44;5019678;28;20194;-74
2022/12/26 11:25:09;;;;;;;2.70;1.93;;;;;;;11.22;100.00;100490.59;5025163;28;20191;-73
2022/12/26 11:27:36;;;;;;;2.67;1.73;;;;;;;11.20;100.00;100487.16;5022697;28;20716;-73
2022/12/26 11:30:32;;;;;;;1.70;1.60;;;;;;;11.22;100.00;100494.06;5024299;28;20223;-73
2022/12/26 11:33:24;;;;;;;1.53;1.43;;;;;;;11.21;100.00;100484.56;5023072;28;20200;-74
2022/12/26 11:35:58;;;;;;;1.70;1.60;;;;;;;11.23;100.00;100476.75;5023513;28;20231;-74
2022/12/26 11:38:34;;;;;;;1.70;1.60;;;;;;;11.21;100.00;100481.09;5023821;28;20325;-73
2022/12/26 11:43:54;;;;;;;2.33;1.47;;;;;;;11.14;100.00;100485.47;5021739;28;20212;-74
2022/12/26 11:46:21;;;;;;;1.40;1.30;;;;;;;11.16;100.00;100494.09;5023153;28;20219;-74
2022/12/26 11:48:49;;;;;;;1.30;1.17;;;;;;;11.15;100.00;100500.16;5023897;28;20214;-74
2022/12/26 11:51:15;;;;;;;1.70;1.40;;;;;;;11.14;100.00;100498.41;5020356;28;20191;-74
2022/12/26 11:53:40;;;;;;;1.47;1.33;;;;;;;11.12;100.00;100489.81;5025145;28;20195;-74
2022/12/26 11:56:06;;;;;;;1.33;1.20;;;;;;;11.07;100.00;100476.03;5019124;28;20262;-75
2022/12/26 11:58:32;;;;;;;1.97;1.43;;;;;;;11.04;100.00;100478.66;5020900;28;20204;-74
2022/12/26 12:00:58;;;;;;;1.50;1.40;;;;;;;11.01;100.00;100476.09;5019910;28;20198;-74
2022/12/26 12:03:23;;;;;;;1.50;1.10;;;;;;;11.00;100.00;100474.38;5016544;28;20188;-73
2022/12/26 12:06:10;;;;;;;1.20;1.10;;;;;;;10.97;100.00;100470.91;5020503;28;20220;-74
2022/12/26 12:09:04;;;;;;;1.33;1.23;;;;;;;10.95;100.00;100461.47;5020521;28;20225;-74
2022/12/26 12:11:36;;;;;;;1.57;1.40;;;;;;;10.93;100.00;100468.38;5018552;28;20299;-74
2022/12/26 12:14:15;;;;;;;1.80;1.13;;;;;;;10.95;100.00;100466.63;5017344;28;20187;-74
2022/12/26 12:16:43;;;;;;;1.60;1.43;;;;;;;10.93;100.00;100477.00;5017503;28;20203;-74
2022/12/26 12:19:42;;;;;;;1.23;1.13;;;;;;;10.93;100.00;100479.59;5020405;28;20646;-75
2022/12/26 12:22:31;;;;;;;1.40;1.30;;;;;;;10.94;100.00;100470.09;5017681;28;20961;-74
2022/12/26 12:25:23;;;;;;;1.70;1.20;;;;;;;10.98;100.00;100483.00;5020062;28;20290;-74
2022/12/26 12:27:53;;;;;;;1.73;1.30;;;;;;;11.04;100.00;100481.25;5019577;28;20234;-75
2022/12/26 12:30:47;;;;;;;1.30;1.17;;;;;;;11.15;100.00;100481.16;5016688;28;20189;-73
2022/12/26 12:33:33;;;;;;;1.10;1.00;;;;;;;11.22;100.00;100473.34;5014487;28;20585;-73
2022/12/26 12:36:11;;;;;;;1.40;1.17;;;;;;;11.23;100.00;100481.94;5011131;28;20250;-73
2022/12/26 12:38:52;;;;;;;2.10;1.73;;;;;;;11.22;100.00;100469.88;5017012;28;20200;-73
2022/12/26 12:41:38;;;;;;;2.00;1.80;;;;;;;11.18;100.00;100466.44;5019844;28;20193;-73
2022/12/26 12:44:11;;;;;;;2.23;2.03;;;;;;;11.17;100.00;100463.88;5015432;28;20189;-74
2022/12/26 12:46:45;;;;;;;1.50;1.40;;;;;;;11.19;100.00;100467.31;5021736;28;20223;-74
2022/12/26 12:49:38;;;;;;;1.23;1.03;;;;;;;11.21;100.00;100466.44;5015158;28;20880;-73
2022/12/26 12:52:31;;;;;;;1.07;0.97;;;;;;;11.23;100.00;100469.88;5014684;28;20191;-74
2022/12/26 12:55:18;;;;;;;0.93;0.90;;;;;;;11.24;100.00;100460.34;5016222;28;20204;-75
2022/12/26 12:58:19;;;;;;;1.07;0.87;;;;;;;11.27;100.00;100466.34;5031781;28;20199;-75
2022/12/26 13:00:59;;;;;;;1.03;0.80;;;;;;;11.32;100.00;100470.66;5105045;27;20594;-75
2022/12/26 13:03:35;;;;;;;1.20;1.10;;;;;;;11.32;100.00;100462.88;5069214;28;20267;-73
2022/12/26 13:06:12;;;;;;;1.57;1.47;;;;;;;11.32;100.00;100458.56;5073026;28;20202;-73
2022/12/26 13:08:46;;;;;;;3.80;3.33;;;;;;;11.29;100.00;100441.28;5068193;28;20267;-74
2022/12/26 13:11:14;;;;;;;4.47;4.07;;;;;;;11.22;100.00;100450.00;5067968;28;20230;-74
2022/12/26 13:13:48;;;;;;;3.87;3.47;;;;;;;11.20;100.00;100454.34;5065839;28;20192;-75
2022/12/26 13:16:21;;;;;;;7.60;6.00;;;;;;;11.16;100.00;100464.75;5069737;28;20219;-74
2022/12/26 13:19:01;;;;;;;10.70;8.80;;;;;;;11.15;100.00;100465.63;5067268;28;22149;-74
2022/12/26 13:21:33;;;;;;;12.73;11.40;;;;;;;11.16;100.00;100460.41;5071962;28;20202;-75
2022/12/26 13:24:23;;;;;;;6.80;6.20;;;;;;;11.20;100.00;100448.28;5077478;28;20704;-74
2022/12/26 13:27:17;;;;;;;4.03;3.73;;;;;;;11.27;100.00;100452.56;5075839;28;20221;-74
2022/12/26 13:29:45;;;;;;;2.63;2.43;;;;;;;11.33;100.00;100459.41;5072243;28;20205;-74
2022/12/26 13:32:16;;;;;;;1.73;1.63;;;;;;;11.34;100.00;100458.53;5073703;28;20194;-75
2022/12/26 13:34:43;;;;;;;1.60;1.50;;;;;;;11.34;100.00;100464.59;5070019;28;20210;-74
2022/12/26 13:37:51;;;;;;;1.73;1.30;;;;;;;11.33;100.00;100464.59;5072638;28;20485;-75
2022/12/26 13:40:20;;;;;;;1.53;1.43;;;;;;;11.30;100.00;100460.31;5067604;28;20261;-74
2022/12/26 13:45:56;;;;;;;2.07;1.90;;;;;;;11.28;100.00;100446.50;5070975;28;20222;-74